Eastport, Mississippi
Current Conditions -  °F | °C
As of 6:15 PM on Friday 28 Nov 2014 (Local Time) from KCRX Reporting Station
Clear Clear  
Wind Chill: 40°   Ceiling: Unl
Heat Index: 45°   Visibility: NA
Dew Point: 28°   Wind: 8mph
Humidity: 53%   Direction: 170°S
Pressure: 30.19"   Gusts: NA
Location:  34.8106°N, 88.1999°W
Report Text: KCRX 290015Z AUTO 17007KT CLR 07/M02 A3019 RMK AO2
Loading
Personal Weather Stations






























Interactive Weather Map New forecast layout! Learn more

10-Day Weather Forecast

Advertisements
Track Severe Weather on mobile